ANA742 RJGG-RKSI
Flight info
| Callsign | ANA742 |
|---|---|
| Flight time | 1h 33m |
| Altitude | 38000 |
| Route | YME Y18 MIHOU Y38 SAPRA Y685 GUKDO GUKDO3C |
| Aircraft | B789/H-SDE1E2E3FGHIJ2J3J4J5M1RWXY/LB1D1 |
Departure
| Time | 2026-05-06 22:43 |
|---|---|
| Airport | Chubu Centrair International Airport (RJGG) |
Arrival
| Time | 2026-05-07 00:17 |
|---|---|
| Airport | Incheon International Airport (RKSI) |
| Time | Latitude | Longitude | Altitude | Speed | Heading |
|---|---|---|---|---|---|
| 2026-05-06 22:34 | 34.85752 | 136.81095 | 34 ft | 0 kts | 346° |
| 2026-05-06 22:36 | 34.85736 | 136.81099 | 32 ft | 2 kts | 333° |
| 2026-05-06 22:37 | 34.85717 | 136.81113 | 31 ft | 4 kts | 321° |
| 2026-05-06 22:37 | 34.85699 | 136.81135 | 31 ft | 4 kts | 308° |
| 2026-05-06 22:37 | 34.85688 | 136.81152 | 31 ft | 0 kts | 307° |
| 2026-05-06 22:38 | 34.85691 | 136.81142 | 32 ft | 3 kts | 290° |
| 2026-05-06 22:39 | 34.85685 | 136.81114 | 33 ft | 7 kts | 243° |
| 2026-05-06 22:39 | 34.85658 | 136.81010 | 34 ft | 16 kts | 255° |
| 2026-05-06 22:39 | 34.85593 | 136.80952 | 33 ft | 11 kts | 175° |
| 2026-05-06 22:39 | 34.85515 | 136.80972 | 33 ft | 16 kts | 168° |
| 2026-05-06 22:40 | 34.85371 | 136.81008 | 34 ft | 24 kts | 168° |
| 2026-05-06 22:40 | 34.85205 | 136.81049 | 34 ft | 25 kts | 168° |
| 2026-05-06 22:40 | 34.85036 | 136.81089 | 34 ft | 25 kts | 169° |
| 2026-05-06 22:40 | 34.84863 | 136.81130 | 34 ft | 26 kts | 169° |
| 2026-05-06 22:41 | 34.84508 | 136.81215 | 33 ft | 26 kts | 169° |
| 2026-05-06 22:41 | 34.84429 | 136.81234 | 33 ft | 7 kts | 169° |
| 2026-05-06 22:41 | 34.84380 | 136.81236 | 33 ft | 7 kts | 196° |
| 2026-05-06 22:42 | 34.84356 | 136.81199 | 33 ft | 7 kts | 248° |
| 2026-05-06 22:42 | 34.84337 | 136.81104 | 32 ft | 15 kts | 258° |
| 2026-05-06 22:42 | 34.84314 | 136.80968 | 28 ft | 18 kts | 261° |
| 2026-05-06 22:42 | 34.84352 | 136.80893 | 28 ft | 8 kts | 340° |
| 2026-05-06 22:43 | 34.84614 | 136.80829 | 29 ft | 79 kts | 349° |
| 2026-05-06 22:43 | 34.85429 | 136.80633 | 31 ft | 157 kts | 348° |
| 2026-05-06 22:43 | 34.86565 | 136.80390 | 577 ft | 155 kts | 353° |
| 2026-05-06 22:43 | 34.87592 | 136.80126 | 1056 ft | 156 kts | 341° |
| 2026-05-06 22:44 | 34.88488 | 136.79323 | 1379 ft | 167 kts | 297° |
| 2026-05-06 22:44 | 34.88538 | 136.77947 | 1820 ft | 172 kts | 245° |
| 2026-05-06 22:44 | 34.87830 | 136.76713 | 2204 ft | 186 kts | 231° |
| 2026-05-06 22:44 | 34.87114 | 136.75355 | 2688 ft | 196 kts | 248° |
| 2026-05-06 22:45 | 34.86669 | 136.73732 | 3194 ft | 208 kts | 256° |
| 2026-05-06 22:45 | 34.86280 | 136.71968 | 3542 ft | 224 kts | 255° |
| 2026-05-06 22:45 | 34.85797 | 136.70103 | 3850 ft | 237 kts | 252° |
| 2026-05-06 22:45 | 34.85232 | 136.68153 | 4163 ft | 254 kts | 251° |
| 2026-05-06 22:46 | 34.84349 | 136.66243 | 4612 ft | 266 kts | 226° |
| 2026-05-06 22:46 | 34.82836 | 136.64979 | 5531 ft | 263 kts | 211° |
| 2026-05-06 22:46 | 34.81162 | 136.64062 | 6209 ft | 270 kts | 196° |
| 2026-05-06 22:46 | 34.79269 | 136.64078 | 6913 ft | 276 kts | 172° |
| 2026-05-06 22:47 | 34.77521 | 136.65085 | 7593 ft | 282 kts | 146° |
| 2026-05-06 22:47 | 34.75962 | 136.66535 | 8338 ft | 285 kts | 142° |
| 2026-05-06 22:47 | 34.74551 | 136.68256 | 9042 ft | 289 kts | 135° |
| 2026-05-06 22:47 | 34.73412 | 136.70307 | 9602 ft | 302 kts | 114° |
| 2026-05-06 22:48 | 34.73086 | 136.72851 | 10222 ft | 311 kts | 90° |
| 2026-05-06 22:48 | 34.73675 | 136.75446 | 10469 ft | 332 kts | 61° |
| 2026-05-06 22:48 | 34.75243 | 136.77563 | 10762 ft | 346 kts | 34° |
| 2026-05-06 22:48 | 34.77466 | 136.78781 | 11073 ft | 358 kts | 13° |
| 2026-05-06 22:49 | 34.79951 | 136.79285 | 11477 ft | 367 kts | 4° |
| 2026-05-06 22:49 | 34.82521 | 136.79497 | 12037 ft | 372 kts | 358° |
| 2026-05-06 22:49 | 34.85066 | 136.79005 | 12588 ft | 372 kts | 338° |
| 2026-05-06 22:49 | 34.87304 | 136.77488 | 13247 ft | 368 kts | 318° |
| 2026-05-06 22:50 | 34.89015 | 136.75197 | 13924 ft | 365 kts | 303° |
| 2026-05-06 22:50 | 34.90499 | 136.72666 | 14497 ft | 369 kts | 302° |
| 2026-05-06 22:50 | 34.91999 | 136.70115 | 15033 ft | 373 kts | 303° |
| 2026-05-06 22:50 | 34.93565 | 136.67572 | 15593 ft | 377 kts | 304° |
| 2026-05-06 22:51 | 34.95153 | 136.65015 | 16147 ft | 380 kts | 304° |
| 2026-05-06 22:51 | 34.96736 | 136.62413 | 16667 ft | 384 kts | 304° |
| 2026-05-06 22:51 | 34.98323 | 136.59779 | 17200 ft | 388 kts | 304° |
| 2026-05-06 22:51 | 34.99934 | 136.57124 | 17712 ft | 391 kts | 304° |
| 2026-05-06 22:52 | 35.01566 | 136.54448 | 18240 ft | 395 kts | 305° |
| 2026-05-06 22:52 | 35.03211 | 136.51742 | 18699 ft | 399 kts | 304° |
| 2026-05-06 22:52 | 35.04865 | 136.49011 | 19157 ft | 401 kts | 304° |
| 2026-05-06 22:52 | 35.06527 | 136.46265 | 19625 ft | 403 kts | 304° |
| 2026-05-06 22:53 | 35.07634 | 136.44438 | 19926 ft | 405 kts | 304° |
| 2026-05-06 22:53 | 35.09860 | 136.40763 | 20542 ft | 408 kts | 304° |
| 2026-05-06 22:53 | 35.11574 | 136.37926 | 20992 ft | 411 kts | 304° |
| 2026-05-06 22:53 | 35.12699 | 136.36064 | 21289 ft | 412 kts | 304° |
| 2026-05-06 22:54 | 35.14407 | 136.33234 | 21722 ft | 415 kts | 304° |
| 2026-05-06 22:54 | 35.16123 | 136.30391 | 22189 ft | 417 kts | 304° |
| 2026-05-06 22:54 | 35.18408 | 136.26598 | 22759 ft | 420 kts | 304° |
| 2026-05-06 22:54 | 35.20145 | 136.23713 | 23160 ft | 423 kts | 304° |
| 2026-05-06 22:55 | 35.21325 | 136.21753 | 23435 ft | 424 kts | 304° |
| 2026-05-06 22:55 | 35.23031 | 136.18802 | 23769 ft | 426 kts | 299° |
| 2026-05-06 22:55 | 35.24274 | 136.15523 | 24060 ft | 425 kts | 288° |
| 2026-05-06 22:55 | 35.25117 | 136.12058 | 24409 ft | 426 kts | 284° |
| 2026-05-06 22:56 | 35.25933 | 136.08574 | 24782 ft | 426 kts | 284° |
| 2026-05-06 22:56 | 35.26760 | 136.05086 | 25106 ft | 428 kts | 285° |
| 2026-05-06 22:56 | 35.27599 | 136.01580 | 25427 ft | 430 kts | 285° |
| 2026-05-06 22:56 | 35.28436 | 135.98062 | 25743 ft | 432 kts | 284° |
| 2026-05-06 22:57 | 35.29271 | 135.94517 | 26057 ft | 434 kts | 284° |
| 2026-05-06 22:57 | 35.30110 | 135.90959 | 26372 ft | 437 kts | 284° |
| 2026-05-06 22:57 | 35.30957 | 135.87377 | 26685 ft | 439 kts | 284° |
| 2026-05-06 22:57 | 35.31805 | 135.83787 | 27088 ft | 439 kts | 284° |
| 2026-05-06 22:58 | 35.32639 | 135.80239 | 27426 ft | 441 kts | 284° |
| 2026-05-06 22:58 | 35.33488 | 135.76619 | 27745 ft | 443 kts | 284° |
| 2026-05-06 22:58 | 35.34340 | 135.72984 | 28030 ft | 446 kts | 284° |
| 2026-05-06 22:58 | 35.35199 | 135.69324 | 28350 ft | 448 kts | 284° |
| 2026-05-06 22:59 | 35.36060 | 135.65644 | 28683 ft | 450 kts | 284° |
| 2026-05-06 22:59 | 35.36923 | 135.61944 | 29006 ft | 453 kts | 284° |
| 2026-05-06 22:59 | 35.37790 | 135.58227 | 29401 ft | 454 kts | 284° |
| 2026-05-06 22:59 | 35.38658 | 135.54498 | 29727 ft | 456 kts | 284° |
| 2026-05-06 23:00 | 35.39531 | 135.50746 | 30031 ft | 459 kts | 284° |
| 2026-05-06 23:00 | 35.40406 | 135.46973 | 30347 ft | 461 kts | 284° |
| 2026-05-06 23:00 | 35.41285 | 135.43184 | 30667 ft | 463 kts | 284° |
| 2026-05-06 23:00 | 35.42165 | 135.39382 | 31015 ft | 464 kts | 284° |
| 2026-05-06 23:01 | 35.43045 | 135.35573 | 31365 ft | 465 kts | 284° |
| 2026-05-06 23:01 | 35.43926 | 135.31752 | 31730 ft | 466 kts | 284° |
| 2026-05-06 23:01 | 35.44807 | 135.27926 | 32104 ft | 467 kts | 284° |
| 2026-05-06 23:01 | 35.45689 | 135.24088 | 32465 ft | 468 kts | 284° |
| 2026-05-06 23:02 | 35.46570 | 135.20250 | 32834 ft | 469 kts | 284° |
| 2026-05-06 23:02 | 35.47452 | 135.16399 | 33298 ft | 468 kts | 284° |
| 2026-05-06 23:02 | 35.48063 | 135.12500 | 33768 ft | 465 kts | 276° |
| 2026-05-06 23:02 | 35.48241 | 135.08557 | 34275 ft | 462 kts | 272° |
| 2026-05-06 23:03 | 35.48357 | 135.04629 | 34694 ft | 460 kts | 272° |
| 2026-05-06 23:03 | 35.48476 | 135.00710 | 35077 ft | 459 kts | 272° |
| 2026-05-06 23:03 | 35.48600 | 134.96796 | 35441 ft | 459 kts | 272° |
| 2026-05-06 23:03 | 35.48723 | 134.92884 | 35793 ft | 459 kts | 271° |
| 2026-05-06 23:04 | 35.48840 | 134.88974 | 36154 ft | 458 kts | 271° |
| 2026-05-06 23:04 | 35.48954 | 134.85066 | 36501 ft | 458 kts | 271° |
| 2026-05-06 23:04 | 35.49070 | 134.81160 | 36845 ft | 458 kts | 271° |
| 2026-05-06 23:04 | 35.49186 | 134.77258 | 37186 ft | 458 kts | 271° |
| 2026-05-06 23:05 | 35.49299 | 134.73359 | 37506 ft | 457 kts | 271° |
| 2026-05-06 23:05 | 35.49522 | 134.65447 | 37626 ft | 469 kts | 270° |
| 2026-05-06 23:05 | 35.49635 | 134.61437 | 37868 ft | 471 kts | 270° |
| 2026-05-06 23:06 | 35.49747 | 134.57402 | 37978 ft | 475 kts | 270° |
| 2026-05-06 23:06 | 35.49967 | 134.49292 | 37962 ft | 473 kts | 270° |
| 2026-05-06 23:07 | 35.50180 | 134.41232 | 37956 ft | 472 kts | 270° |
| 2026-05-06 23:07 | 35.50387 | 134.33207 | 37946 ft | 469 kts | 270° |
| 2026-05-06 23:08 | 35.50588 | 134.25201 | 37945 ft | 469 kts | 270° |
| 2026-05-06 23:08 | 35.50784 | 134.17206 | 37956 ft | 467 kts | 270° |
| 2026-05-06 23:09 | 35.50973 | 134.09244 | 37948 ft | 467 kts | 270° |
| 2026-05-06 23:09 | 35.51157 | 134.01248 | 37974 ft | 470 kts | 270° |
| 2026-05-06 23:10 | 35.51337 | 133.93261 | 37975 ft | 467 kts | 270° |
| 2026-05-06 23:10 | 35.51510 | 133.85286 | 37971 ft | 467 kts | 270° |
| 2026-05-06 23:11 | 35.51679 | 133.77330 | 37975 ft | 464 kts | 270° |
| 2026-05-06 23:11 | 35.51840 | 133.69469 | 37972 ft | 464 kts | 270° |
| 2026-05-06 23:12 | 35.51998 | 133.61532 | 37982 ft | 467 kts | 270° |
| 2026-05-06 23:12 | 35.52196 | 133.53603 | 37961 ft | 463 kts | 271° |
| 2026-05-06 23:13 | 35.52369 | 133.45702 | 37959 ft | 463 kts | 270° |
| 2026-05-06 23:13 | 35.52543 | 133.37811 | 37961 ft | 460 kts | 271° |
| 2026-05-06 23:14 | 35.52709 | 133.29967 | 37962 ft | 460 kts | 270° |
| 2026-05-06 23:14 | 35.52866 | 133.22113 | 37947 ft | 461 kts | 270° |
| 2026-05-06 23:15 | 35.53021 | 133.14233 | 37953 ft | 462 kts | 270° |
| 2026-05-06 23:15 | 35.53491 | 133.06393 | 37964 ft | 462 kts | 278° |
| 2026-05-06 23:16 | 35.54475 | 132.98593 | 37953 ft | 458 kts | 276° |
| 2026-05-06 23:16 | 35.55427 | 132.90922 | 37951 ft | 455 kts | 276° |
| 2026-05-06 23:17 | 35.56389 | 132.83226 | 37959 ft | 456 kts | 276° |
| 2026-05-06 23:17 | 35.57338 | 132.75530 | 37961 ft | 456 kts | 276° |
| 2026-05-06 23:18 | 35.58287 | 132.67840 | 37935 ft | 456 kts | 276° |
| 2026-05-06 23:18 | 35.59320 | 132.60086 | 37976 ft | 462 kts | 277° |
| 2026-05-06 23:19 | 35.60323 | 132.52404 | 37953 ft | 456 kts | 276° |
| 2026-05-06 23:19 | 35.61320 | 132.44701 | 37952 ft | 457 kts | 277° |
| 2026-05-06 23:20 | 35.62322 | 132.36989 | 37961 ft | 456 kts | 276° |
| 2026-05-06 23:20 | 35.63307 | 132.29305 | 37957 ft | 455 kts | 276° |
| 2026-05-06 23:21 | 35.64292 | 132.21636 | 37962 ft | 454 kts | 276° |
| 2026-05-06 23:21 | 35.65267 | 132.13969 | 37954 ft | 453 kts | 276° |
| 2026-05-06 23:22 | 35.66235 | 132.06327 | 37934 ft | 453 kts | 276° |
| 2026-05-06 23:22 | 35.67204 | 131.98633 | 37966 ft | 456 kts | 276° |
| 2026-05-06 23:23 | 35.68170 | 131.90934 | 37950 ft | 454 kts | 276° |
| 2026-05-06 23:23 | 35.69127 | 131.83253 | 37947 ft | 454 kts | 276° |
| 2026-05-06 23:24 | 35.70080 | 131.75570 | 37952 ft | 454 kts | 276° |
| 2026-05-06 23:24 | 35.71024 | 131.67920 | 37947 ft | 452 kts | 276° |
| 2026-05-06 23:25 | 35.71961 | 131.60285 | 37945 ft | 452 kts | 276° |
| 2026-05-06 23:25 | 35.72895 | 131.52630 | 37946 ft | 452 kts | 276° |
| 2026-05-06 23:26 | 35.73820 | 131.45015 | 37943 ft | 450 kts | 276° |
| 2026-05-06 23:26 | 35.74744 | 131.37354 | 37945 ft | 454 kts | 276° |
| 2026-05-06 23:27 | 35.75665 | 131.29683 | 37938 ft | 452 kts | 276° |
| 2026-05-06 23:27 | 35.76579 | 131.22026 | 37937 ft | 452 kts | 276° |
| 2026-05-06 23:28 | 35.77487 | 131.14379 | 37935 ft | 451 kts | 276° |
| 2026-05-06 23:28 | 35.78391 | 131.06718 | 37944 ft | 453 kts | 276° |
| 2026-05-06 23:29 | 35.79295 | 130.99021 | 37943 ft | 454 kts | 276° |
| 2026-05-06 23:29 | 35.80187 | 130.91384 | 37942 ft | 453 kts | 276° |
| 2026-05-06 23:30 | 35.81078 | 130.83703 | 37935 ft | 453 kts | 275° |
| 2026-05-06 23:30 | 35.81966 | 130.76012 | 37935 ft | 454 kts | 275° |
| 2026-05-06 23:31 | 35.82876 | 130.68297 | 37935 ft | 456 kts | 276° |
| 2026-05-06 23:31 | 35.83906 | 130.60585 | 37937 ft | 456 kts | 276° |
| 2026-05-06 23:32 | 35.84859 | 130.52877 | 37934 ft | 454 kts | 276° |
| 2026-05-06 23:32 | 35.85840 | 130.45188 | 37925 ft | 454 kts | 276° |
| 2026-05-06 23:33 | 35.86802 | 130.37491 | 37927 ft | 455 kts | 276° |
| 2026-05-06 23:33 | 35.87765 | 130.29787 | 37921 ft | 455 kts | 276° |
| 2026-05-06 23:34 | 35.88723 | 130.22070 | 37926 ft | 455 kts | 276° |
| 2026-05-06 23:34 | 35.89671 | 130.14389 | 37919 ft | 453 kts | 276° |
| 2026-05-06 23:35 | 35.90616 | 130.06695 | 37925 ft | 456 kts | 276° |
| 2026-05-06 23:35 | 35.91562 | 129.98955 | 37920 ft | 454 kts | 276° |
| 2026-05-06 23:36 | 35.92496 | 129.91267 | 37913 ft | 453 kts | 276° |
| 2026-05-06 23:36 | 35.93425 | 129.83575 | 37914 ft | 453 kts | 276° |
| 2026-05-06 23:37 | 35.94348 | 129.75894 | 37916 ft | 451 kts | 276° |
| 2026-05-06 23:37 | 35.95261 | 129.68247 | 37915 ft | 451 kts | 276° |
| 2026-05-06 23:38 | 35.96165 | 129.60641 | 37916 ft | 451 kts | 276° |
| 2026-05-06 23:38 | 35.97093 | 129.52930 | 37907 ft | 450 kts | 277° |
| 2026-05-06 23:39 | 35.99098 | 129.45632 | 37911 ft | 458 kts | 292° |
| 2026-05-06 23:39 | 36.02613 | 129.39001 | 37922 ft | 464 kts | 300° |
| 2026-05-06 23:40 | 36.06366 | 129.32505 | 37914 ft | 464 kts | 300° |
| 2026-05-06 23:40 | 36.10092 | 129.26035 | 37917 ft | 462 kts | 300° |
| 2026-05-06 23:41 | 36.13815 | 129.19568 | 37929 ft | 461 kts | 300° |
| 2026-05-06 23:41 | 36.17538 | 129.13082 | 37922 ft | 463 kts | 300° |
| 2026-05-06 23:42 | 36.21259 | 129.06593 | 37930 ft | 461 kts | 300° |
| 2026-05-06 23:42 | 36.24337 | 129.01211 | 37932 ft | 461 kts | 300° |
| 2026-05-06 23:43 | 36.28039 | 128.94729 | 37921 ft | 461 kts | 300° |
| 2026-05-06 23:43 | 36.31739 | 128.88241 | 37942 ft | 461 kts | 300° |
| 2026-05-06 23:44 | 36.35434 | 128.81747 | 37919 ft | 460 kts | 300° |
| 2026-05-06 23:44 | 36.39117 | 128.75259 | 37922 ft | 460 kts | 300° |
| 2026-05-06 23:45 | 36.42799 | 128.68765 | 37928 ft | 460 kts | 300° |
| 2026-05-06 23:45 | 36.46479 | 128.62261 | 37925 ft | 460 kts | 300° |
| 2026-05-06 23:46 | 36.50153 | 128.55755 | 37922 ft | 460 kts | 300° |
| 2026-05-06 23:46 | 36.53825 | 128.49240 | 37949 ft | 460 kts | 299° |
| 2026-05-06 23:47 | 36.57473 | 128.42758 | 37925 ft | 456 kts | 299° |
| 2026-05-06 23:47 | 36.61112 | 128.36272 | 37930 ft | 458 kts | 299° |
| 2026-05-06 23:48 | 36.64772 | 128.29762 | 37933 ft | 459 kts | 300° |
| 2026-05-06 23:48 | 36.68485 | 128.23298 | 37925 ft | 459 kts | 300° |
| 2026-05-06 23:49 | 36.72161 | 128.16812 | 37927 ft | 458 kts | 299° |
| 2026-05-06 23:49 | 36.75837 | 128.10350 | 37923 ft | 456 kts | 300° |
| 2026-05-06 23:50 | 36.79509 | 128.03868 | 37913 ft | 457 kts | 299° |
| 2026-05-06 23:50 | 36.83147 | 127.97440 | 37188 ft | 449 kts | 299° |
| 2026-05-06 23:50 | 36.84944 | 127.94262 | 36523 ft | 446 kts | 299° |
| 2026-05-06 23:51 | 36.86721 | 127.91106 | 35900 ft | 444 kts | 299° |
| 2026-05-06 23:51 | 36.88504 | 127.87929 | 35300 ft | 449 kts | 300° |
| 2026-05-06 23:51 | 36.90310 | 127.84714 | 34680 ft | 456 kts | 300° |
| 2026-05-06 23:51 | 36.92140 | 127.81466 | 34034 ft | 458 kts | 300° |
| 2026-05-06 23:52 | 36.93977 | 127.78203 | 33290 ft | 460 kts | 300° |
| 2026-05-06 23:52 | 36.95789 | 127.74980 | 32618 ft | 457 kts | 300° |
| 2026-05-06 23:52 | 36.97606 | 127.71753 | 31894 ft | 450 kts | 300° |
| 2026-05-06 23:52 | 36.99397 | 127.68569 | 31189 ft | 445 kts | 300° |
| 2026-05-06 23:53 | 37.01160 | 127.65421 | 30459 ft | 440 kts | 300° |
| 2026-05-06 23:53 | 37.02911 | 127.62293 | 29736 ft | 436 kts | 300° |
| 2026-05-06 23:53 | 37.04636 | 127.59211 | 29119 ft | 429 kts | 300° |
| 2026-05-06 23:53 | 37.06337 | 127.56167 | 28559 ft | 426 kts | 299° |
| 2026-05-06 23:54 | 37.08032 | 127.53120 | 28000 ft | 428 kts | 299° |
| 2026-05-06 23:54 | 37.09736 | 127.50063 | 27454 ft | 428 kts | 299° |
| 2026-05-06 23:54 | 37.11436 | 127.47019 | 26922 ft | 426 kts | 299° |
| 2026-05-06 23:54 | 37.13131 | 127.43990 | 26357 ft | 422 kts | 300° |
| 2026-05-06 23:55 | 37.15112 | 127.41257 | 25764 ft | 429 kts | 311° |
| 2026-05-06 23:55 | 37.17578 | 127.39088 | 25210 ft | 439 kts | 323° |
| 2026-05-06 23:55 | 37.20419 | 127.37594 | 24652 ft | 448 kts | 335° |
| 2026-05-06 23:55 | 37.23510 | 127.36860 | 24098 ft | 457 kts | 348° |
| 2026-05-06 23:56 | 37.26716 | 127.36937 | 23556 ft | 466 kts | 0° |
| 2026-05-06 23:56 | 37.29894 | 127.37852 | 22919 ft | 472 kts | 13° |
| 2026-05-06 23:56 | 37.32904 | 127.39531 | 22320 ft | 472 kts | 21° |
| 2026-05-06 23:56 | 37.35923 | 127.41005 | 21685 ft | 461 kts | 9° |
| 2026-05-06 23:57 | 37.39038 | 127.41604 | 21047 ft | 446 kts | 355° |
| 2026-05-06 23:57 | 37.42062 | 127.41315 | 20463 ft | 428 kts | 342° |
| 2026-05-06 23:57 | 37.44784 | 127.40193 | 19934 ft | 409 kts | 327° |
| 2026-05-06 23:57 | 37.47118 | 127.38298 | 19468 ft | 392 kts | 313° |
| 2026-05-06 23:58 | 37.48880 | 127.35784 | 19026 ft | 378 kts | 297° |
| 2026-05-06 23:58 | 37.49960 | 127.32833 | 18621 ft | 368 kts | 282° |
| 2026-05-06 23:58 | 37.50288 | 127.29682 | 18225 ft | 358 kts | 266° |
| 2026-05-06 23:58 | 37.49852 | 127.26713 | 17809 ft | 339 kts | 250° |
| 2026-05-06 23:59 | 37.48703 | 127.24185 | 17462 ft | 328 kts | 235° |
| 2026-05-06 23:59 | 37.47440 | 127.21860 | 17144 ft | 316 kts | 239° |
| 2026-05-06 23:59 | 37.46353 | 127.19502 | 16802 ft | 306 kts | 243° |
| 2026-05-06 23:59 | 37.45464 | 127.17115 | 16466 ft | 298 kts | 248° |
| 2026-05-07 00:00 | 37.44833 | 127.14666 | 16091 ft | 291 kts | 255° |
| 2026-05-07 00:00 | 37.44483 | 127.12180 | 15745 ft | 286 kts | 259° |
| 2026-05-07 00:00 | 37.44175 | 127.09742 | 15395 ft | 279 kts | 258° |
| 2026-05-07 00:00 | 37.43788 | 127.07383 | 15045 ft | 272 kts | 256° |
| 2026-05-07 00:01 | 37.43379 | 127.05076 | 14705 ft | 267 kts | 256° |
| 2026-05-07 00:01 | 37.43003 | 127.02814 | 14377 ft | 262 kts | 257° |
| 2026-05-07 00:01 | 37.42641 | 127.00584 | 14047 ft | 258 kts | 256° |
| 2026-05-07 00:01 | 37.42282 | 126.98392 | 13720 ft | 254 kts | 257° |
| 2026-05-07 00:02 | 37.41929 | 126.96234 | 13353 ft | 249 kts | 257° |
| 2026-05-07 00:02 | 37.41891 | 126.94064 | 12954 ft | 251 kts | 273° |
| 2026-05-07 00:02 | 37.42364 | 126.91954 | 12604 ft | 254 kts | 288° |
| 2026-05-07 00:02 | 37.43329 | 126.90086 | 12262 ft | 258 kts | 304° |
| 2026-05-07 00:03 | 37.44540 | 126.88453 | 11969 ft | 253 kts | 305° |
| 2026-05-07 00:03 | 37.45753 | 126.86779 | 11704 ft | 266 kts | 305° |
| 2026-05-07 00:03 | 37.47014 | 126.85021 | 11415 ft | 274 kts | 306° |
| 2026-05-07 00:03 | 37.48304 | 126.83241 | 11087 ft | 275 kts | 306° |
| 2026-05-07 00:04 | 37.49597 | 126.81461 | 10747 ft | 275 kts | 306° |
| 2026-05-07 00:04 | 37.50881 | 126.79685 | 10399 ft | 274 kts | 306° |
| 2026-05-07 00:04 | 37.52159 | 126.77911 | 10045 ft | 273 kts | 306° |
| 2026-05-07 00:04 | 37.53432 | 126.76146 | 9652 ft | 270 kts | 306° |
| 2026-05-07 00:05 | 37.54688 | 126.74408 | 9280 ft | 266 kts | 306° |
| 2026-05-07 00:05 | 37.55924 | 126.72694 | 8912 ft | 262 kts | 306° |
| 2026-05-07 00:05 | 37.57141 | 126.71005 | 8552 ft | 258 kts | 306° |
| 2026-05-07 00:05 | 37.58337 | 126.69345 | 8211 ft | 255 kts | 306° |
| 2026-05-07 00:06 | 37.59526 | 126.67693 | 7892 ft | 254 kts | 306° |
| 2026-05-07 00:06 | 37.60706 | 126.66047 | 7536 ft | 252 kts | 306° |
| 2026-05-07 00:06 | 37.61867 | 126.64427 | 7181 ft | 246 kts | 306° |
| 2026-05-07 00:06 | 37.62943 | 126.62797 | 6817 ft | 235 kts | 295° |
| 2026-05-07 00:07 | 37.63501 | 126.60920 | 6493 ft | 225 kts | 284° |
| 2026-05-07 00:07 | 37.64104 | 126.59108 | 6188 ft | 222 kts | 288° |
| 2026-05-07 00:07 | 37.64708 | 126.57330 | 5923 ft | 221 kts | 287° |
| 2026-05-07 00:07 | 37.65298 | 126.55507 | 5643 ft | 228 kts | 288° |
| 2026-05-07 00:08 | 37.65897 | 126.53628 | 5358 ft | 233 kts | 287° |
| 2026-05-07 00:08 | 37.66490 | 126.51693 | 5072 ft | 240 kts | 287° |
| 2026-05-07 00:08 | 37.67087 | 126.49728 | 4749 ft | 237 kts | 281° |
| 2026-05-07 00:08 | 37.67256 | 126.47707 | 4458 ft | 224 kts | 271° |
| 2026-05-07 00:09 | 37.67467 | 126.45839 | 4191 ft | 212 kts | 275° |
| 2026-05-07 00:09 | 37.67691 | 126.44045 | 3889 ft | 202 kts | 274° |
| 2026-05-07 00:09 | 37.67874 | 126.42328 | 3605 ft | 192 kts | 273° |
| 2026-05-07 00:09 | 37.67980 | 126.40720 | 3435 ft | 173 kts | 264° |
| 2026-05-07 00:10 | 37.67773 | 126.39316 | 3361 ft | 156 kts | 257° |
| 2026-05-07 00:10 | 37.67604 | 126.37973 | 3331 ft | 155 kts | 257° |
| 2026-05-07 00:10 | 37.67433 | 126.36636 | 3273 ft | 153 kts | 257° |
| 2026-05-07 00:10 | 37.67257 | 126.35285 | 3194 ft | 158 kts | 258° |
| 2026-05-07 00:11 | 37.67081 | 126.33918 | 3089 ft | 156 kts | 258° |
| 2026-05-07 00:11 | 37.66907 | 126.32570 | 2966 ft | 155 kts | 257° |
| 2026-05-07 00:11 | 37.66604 | 126.31283 | 2906 ft | 154 kts | 240° |
| 2026-05-07 00:11 | 37.65852 | 126.30327 | 2942 ft | 158 kts | 218° |
| 2026-05-07 00:12 | 37.64813 | 126.29820 | 2978 ft | 162 kts | 203° |
| 2026-05-07 00:12 | 37.63740 | 126.29362 | 2979 ft | 161 kts | 204° |
| 2026-05-07 00:12 | 37.62676 | 126.28913 | 2982 ft | 163 kts | 202° |
| 2026-05-07 00:12 | 37.61509 | 126.29009 | 2793 ft | 181 kts | 167° |
| 2026-05-07 00:13 | 37.60470 | 126.29812 | 2875 ft | 170 kts | 156° |
| 2026-05-07 00:13 | 37.59476 | 126.30655 | 2965 ft | 177 kts | 155° |
| 2026-05-07 00:13 | 37.58442 | 126.31564 | 2760 ft | 180 kts | 153° |
| 2026-05-07 00:13 | 37.57454 | 126.32470 | 2513 ft | 172 kts | 154° |
| 2026-05-07 00:14 | 37.56474 | 126.33347 | 2281 ft | 173 kts | 154° |
| 2026-05-07 00:14 | 37.55507 | 126.34213 | 2047 ft | 168 kts | 153° |
| 2026-05-07 00:14 | 37.54551 | 126.35066 | 1824 ft | 169 kts | 153° |
| 2026-05-07 00:14 | 37.53591 | 126.35922 | 1598 ft | 166 kts | 151° |
| 2026-05-07 00:15 | 37.52670 | 126.36760 | 1383 ft | 162 kts | 153° |
| 2026-05-07 00:15 | 37.51764 | 126.37541 | 1118 ft | 152 kts | 152° |
| 2026-05-07 00:15 | 37.50952 | 126.38308 | 913 ft | 139 kts | 147° |
| 2026-05-07 00:15 | 37.50190 | 126.39006 | 738 ft | 135 kts | 148° |
| 2026-05-07 00:16 | 37.49421 | 126.39675 | 587 ft | 133 kts | 147° |
| 2026-05-07 00:16 | 37.48675 | 126.40332 | 397 ft | 130 kts | 146° |
| 2026-05-07 00:16 | 37.47922 | 126.40982 | 223 ft | 132 kts | 146° |
| 2026-05-07 00:16 | 37.47170 | 126.41659 | 49 ft | 133 kts | 145° |
| 2026-05-07 00:17 | 37.46433 | 126.42320 | 34 ft | 125 kts | 145° |
| 2026-05-07 00:17 | 37.45845 | 126.42834 | 29 ft | 71 kts | 145° |
| 2026-05-07 00:17 | 37.45556 | 126.43094 | 31 ft | 46 kts | 144° |
| 2026-05-07 00:17 | 37.45347 | 126.43287 | 29 ft | 27 kts | 134° |
| 2026-05-07 00:18 | 37.45265 | 126.43421 | 29 ft | 18 kts | 123° |
| 2026-05-07 00:18 | 37.45214 | 126.43557 | 28 ft | 16 kts | 114° |
| 2026-05-07 00:18 | 37.45182 | 126.43643 | 28 ft | 11 kts | 115° |
| 2026-05-07 00:18 | 37.45139 | 126.43724 | 28 ft | 12 kts | 135° |
| 2026-05-07 00:19 | 37.45072 | 126.43790 | 28 ft | 13 kts | 146° |
| 2026-05-07 00:19 | 37.44998 | 126.43857 | 28 ft | 13 kts | 132° |
| 2026-05-07 00:19 | 37.45004 | 126.43941 | 28 ft | 10 kts | 59° |
| 2026-05-07 00:19 | 37.45045 | 126.44017 | 28 ft | 11 kts | 55° |
| 2026-05-07 00:20 | 37.45093 | 126.44103 | 28 ft | 13 kts | 54° |
| 2026-05-07 00:20 | 37.45157 | 126.44118 | 28 ft | 9 kts | 348° |
| 2026-05-07 00:20 | 37.45212 | 126.44144 | 28 ft | 8 kts | 50° |
| 2026-05-07 00:20 | 37.45249 | 126.44209 | 28 ft | 10 kts | 54° |
| 2026-05-07 00:21 | 37.45281 | 126.44265 | 28 ft | 2 kts | 54° |
| 2026-05-07 00:21 | 37.45292 | 126.44285 | 28 ft | 4 kts | 54° |
| 2026-05-07 00:21 | 37.45313 | 126.44320 | 28 ft | 5 kts | 47° |
| 2026-05-07 00:21 | 37.45334 | 126.44326 | 28 ft | 3 kts | 354° |
| 2026-05-07 00:22 | 37.45352 | 126.44313 | 28 ft | 5 kts | 324° |
| 2026-05-07 00:22 | 37.45376 | 126.44290 | 28 ft | 2 kts | 320° |
| 2026-05-07 00:22 | 37.45390 | 126.44276 | 27 ft | 2 kts | 321° |